Time;durP1;ratioP1;P1;durP2;ratioP2;P2;SDS_P1;SDS_P2;PMS_P1;PMS_P2;Temp;Humidity;BMP_temperature;BMP_pressure;BME280_temperature;BME280_humidity;BME280_pressure;Samples;Min_cycle;Max_cycle;Signal;HPM_P1;HPM_P2
2023/04/28 00:01:53;;;;;;;7.13;3.37;;;10.70;98.00;;;;;;5053521;28;20455;-65
2023/04/28 00:04:20;;;;;;;5.20;2.83;;;10.90;98.00;;;;;;5053632;28;20462;-66
2023/04/28 00:06:48;;;;;;;6.90;3.00;;;10.90;98.00;;;;;;5053450;28;20464;-66
2023/04/28 00:09:15;;;;;;;4.03;2.53;;;10.90;98.00;;;;;;5053893;28;20536;-65
2023/04/28 00:11:45;;;;;;;4.40;2.60;;;10.80;98.00;;;;;;5053430;28;20871;-65
2023/04/28 00:14:12;;;;;;;4.00;2.20;;;10.70;98.00;;;;;;5053350;28;20485;-65
2023/04/28 00:16:40;;;;;;;4.40;2.37;;;10.60;98.00;;;;;;5053266;28;20976;-65
2023/04/28 00:19:07;;;;;;;5.93;2.90;;;10.60;98.00;;;;;;5053738;28;20458;-66
2023/04/28 00:21:35;;;;;;;4.90;2.70;;;10.70;98.00;;;;;;5052127;28;20465;-65
2023/04/28 00:24:02;;;;;;;8.77;2.70;;;10.90;98.00;;;;;;5052096;28;20454;-66
2023/04/28 00:26:29;;;;;;;7.93;3.80;;;11.10;98.00;;;;;;5053189;28;20490;-66
2023/04/28 00:28:56;;;;;;;5.40;2.77;;;11.20;98.00;;;;;;5053086;28;20457;-66
2023/04/28 00:31:23;;;;;;;5.27;2.80;;;11.20;98.00;;;;;;5053145;28;20515;-66
2023/04/28 00:33:51;;;;;;;5.63;2.60;;;11.20;98.00;;;;;;5052982;28;20457;-66
2023/04/28 00:36:18;;;;;;;6.30;3.10;;;11.20;98.00;;;;;;5053296;28;20538;-66
2023/04/28 00:38:45;;;;;;;5.13;2.33;;;11.20;98.00;;;;;;5052782;28;20960;-65
2023/04/28 00:41:20;;;;;;;6.70;3.10;;;11.20;98.00;;;;;;5052987;28;20457;-66
2023/04/28 00:43:47;;;;;;;4.17;2.63;;;11.10;98.00;;;;;;5051248;28;20524;-65
2023/04/28 00:46:22;;;;;;;5.83;2.77;;;11.10;98.00;;;;;;5051789;28;20527;-65
2023/04/28 00:48:50;;;;;;;4.63;2.53;;;11.10;98.00;;;;;;5052931;28;20458;-65
2023/04/28 00:51:18;;;;;;;5.30;2.43;;;11.00;98.00;;;;;;5052539;28;20471;-65
2023/04/28 00:53:45;;;;;;;4.80;2.83;;;10.90;98.00;;;;;;5052577;28;20459;-65
2023/04/28 00:56:13;;;;;;;3.70;2.67;;;10.90;98.00;;;;;;5052519;28;20490;-65
2023/04/28 00:58:41;;;;;;;6.40;3.30;;;11.00;98.00;;;;;;5051405;28;20463;-65
2023/04/28 01:01:10;;;;;;;4.57;2.87;;;11.10;98.00;;;;;;5052478;28;20467;-65
2023/04/28 01:03:40;;;;;;;5.03;2.60;;;11.10;98.00;;;;;;5052426;28;20459;-66
2023/04/28 01:06:09;;;;;;;4.50;2.50;;;11.10;98.00;;;;;;5052310;28;20464;-66
2023/04/28 01:08:37;;;;;;;4.53;2.50;;;11.10;98.00;;;;;;5052358;28;20458;-65
2023/04/28 01:11:05;;;;;;;4.40;2.40;;;11.20;98.00;;;;;;5052515;28;20452;-65
2023/04/28 01:13:32;;;;;;;4.87;2.90;;;11.20;98.00;;;;;;5051025;28;20462;-65
2023/04/28 01:16:00;;;;;;;5.30;2.60;;;11.30;98.00;;;;;;5051523;28;20487;-65
2023/04/28 01:18:27;;;;;;;4.50;2.73;;;11.30;98.00;;;;;;5050903;28;20469;-65
2023/04/28 01:20:59;;;;;;;5.07;2.90;;;11.30;98.00;;;;;;5052156;28;20458;-65
2023/04/28 01:23:27;;;;;;;6.33;3.03;;;11.30;98.00;;;;;;5051081;28;20455;-65
2023/04/28 01:25:57;;;;;;;5.57;2.60;;;11.20;98.00;;;;;;5052031;28;20457;-66
2023/04/28 01:28:28;;;;;;;3.30;2.50;;;11.10;98.00;;;;;;5052010;28;20464;-65
2023/04/28 01:30:55;;;;;;;7.43;3.10;;;11.00;98.00;;;;;;5051989;28;20545;-65
2023/04/28 01:33:22;;;;;;;5.03;2.73;;;11.00;98.00;;;;;;5051687;28;20461;-65
2023/04/28 01:35:49;;;;;;;4.53;2.73;;;11.00;98.00;;;;;;5051855;28;20486;-66
2023/04/28 01:38:16;;;;;;;8.03;3.20;;;11.10;98.00;;;;;;5051676;28;20467;-65
2023/04/28 01:40:43;;;;;;;3.03;2.13;;;11.00;98.00;;;;;;5052029;28;20867;-66
2023/04/28 01:43:13;;;;;;;7.03;3.00;;;10.90;98.00;;;;;;5051666;28;20460;-66
2023/04/28 01:45:41;;;;;;;6.97;3.20;;;11.00;98.00;;;;;;5051712;28;20499;-65
2023/04/28 01:48:09;;;;;;;5.53;3.20;;;11.10;98.00;;;;;;5051540;28;20554;-65
2023/04/28 01:50:36;;;;;;;6.87;2.80;;;11.30;98.00;;;;;;5051879;28;20468;-65
2023/04/28 01:53:03;;;;;;;5.03;3.00;;;11.50;98.00;;;;;;5051488;28;20454;-65
2023/04/28 01:55:30;;;;;;;6.27;3.00;;;11.30;98.00;;;;;;5051383;28;20488;-65
2023/04/28 01:57:58;;;;;;;4.97;2.93;;;11.10;98.00;;;;;;5050101;28;20801;-65
2023/04/28 02:00:26;;;;;;;5.80;2.77;;;11.00;98.00;;;;;;5051452;28;20484;-65
2023/04/28 02:02:53;;;;;;;4.90;2.90;;;10.90;98.00;;;;;;5051444;28;20493;-65
2023/04/28 02:05:21;;;;;;;5.30;2.90;;;10.80;98.00;;;;;;5050112;28;20537;-66
2023/04/28 02:07:48;;;;;;;4.87;2.83;;;10.80;98.00;;;;;;5051305;28;20468;-66
2023/04/28 02:10:15;;;;;;;4.63;2.73;;;10.90;98.00;;;;;;5051508;28;20460;-65
2023/04/28 02:12:42;;;;;;;4.70;3.00;;;11.00;98.00;;;;;;5051608;28;20869;-65
2023/04/28 02:15:10;;;;;;;5.10;3.00;;;11.30;98.00;;;;;;5049554;28;20725;-65
2023/04/28 02:17:39;;;;;;;5.57;3.10;;;11.10;98.00;;;;;;5049771;28;20445;-65
2023/04/28 02:20:07;;;;;;;4.20;2.50;;;11.00;98.00;;;;;;5049900;28;20945;-65
2023/04/28 02:22:41;;;;;;;5.50;2.70;;;10.90;98.00;;;;;;5051154;28;20472;-65
2023/04/28 02:25:08;;;;;;;4.67;2.67;;;10.90;98.00;;;;;;5051358;28;20454;-66
2023/04/28 02:27:37;;;;;;;4.83;2.70;;;10.90;98.00;;;;;;5050908;28;20654;-65
2023/04/28 02:30:04;;;;;;;4.10;2.70;;;10.90;98.00;;;;;;5051165;28;20448;-65
2023/04/28 02:32:31;;;;;;;3.33;2.60;;;11.00;98.00;;;;;;5050807;28;20454;-65
2023/04/28 02:35:00;;;;;;;5.30;2.73;;;11.10;98.00;;;;;;5050878;28;20483;-65
2023/04/28 02:37:27;;;;;;;4.90;2.67;;;11.00;98.00;;;;;;5050754;28;20510;-65
2023/04/28 02:39:55;;;;;;;5.10;2.90;;;11.10;98.00;;;;;;5051133;28;20454;-65
2023/04/28 02:42:22;;;;;;;5.27;2.70;;;10.90;98.00;;;;;;5049494;28;20994;-65
2023/04/28 02:44:49;;;;;;;3.27;2.40;;;10.90;98.00;;;;;;5049000;28;20479;-65
2023/04/28 02:47:16;;;;;;;4.87;2.83;;;10.80;98.00;;;;;;5049869;28;20534;-65
2023/04/28 02:49:44;;;;;;;5.80;3.37;;;10.80;98.00;;;;;;5048667;28;20461;-65
2023/04/28 02:52:12;;;;;;;4.63;2.63;;;10.80;98.00;;;;;;5050068;28;20477;-65
2023/04/28 02:54:40;;;;;;;5.53;2.90;;;10.80;98.00;;;;;;5049861;28;20570;-65
2023/04/28 02:57:09;;;;;;;11.20;3.10;;;10.70;98.00;;;;;;5050058;28;20454;-65
2023/04/28 02:59:36;;;;;;;5.93;2.67;;;10.90;98.00;;;;;;5049932;28;20469;-65
2023/04/28 03:02:04;;;;;;;3.70;2.60;;;11.10;98.00;;;;;;5049888;28;20468;-65
2023/04/28 03:04:32;;;;;;;5.87;2.90;;;11.30;98.00;;;;;;5050065;28;20462;-65
2023/04/28 03:06:59;;;;;;;3.83;2.60;;;11.20;98.00;;;;;;5049930;28;20458;-65
2023/04/28 03:09:28;;;;;;;4.50;2.60;;;11.10;98.00;;;;;;5051987;28;20491;-65
2023/04/28 03:11:55;;;;;;;3.77;2.60;;;11.00;98.00;;;;;;5053117;28;20469;-65
2023/04/28 03:14:22;;;;;;;3.43;2.27;;;11.00;98.00;;;;;;5053174;28;20459;-65
2023/04/28 03:16:49;;;;;;;4.90;2.73;;;11.00;98.00;;;;;;5051792;28;20482;-65
2023/04/28 03:19:17;;;;;;;7.63;3.37;;;11.10;98.00;;;;;;5051827;28;20544;-65
2023/04/28 03:21:44;;;;;;;4.13;2.80;;;11.10;98.00;;;;;;5052996;28;20450;-65
2023/04/28 03:24:11;;;;;;;4.77;2.50;;;11.00;98.00;;;;;;5052771;28;20465;-65
2023/04/28 03:26:39;;;;;;;6.43;3.20;;;11.00;98.00;;;;;;5053279;28;20858;-65
2023/04/28 03:29:06;;;;;;;3.90;2.63;;;11.10;98.00;;;;;;5052868;28;20489;-65
2023/04/28 03:31:33;;;;;;;4.70;2.83;;;11.00;98.00;;;;;;5052898;28;20451;-65
2023/04/28 03:34:00;;;;;;;4.67;2.97;;;11.00;98.00;;;;;;5051288;28;20454;-66
2023/04/28 03:36:29;;;;;;;3.67;2.40;;;11.00;98.00;;;;;;5051706;28;20557;-65
2023/04/28 03:38:56;;;;;;;4.93;2.97;;;10.90;98.00;;;;;;5052637;28;20460;-65
2023/04/28 03:41:23;;;;;;;4.90;2.60;;;10.90;98.00;;;;;;5052852;28;20459;-66
2023/04/28 03:43:52;;;;;;;5.20;2.97;;;11.10;98.00;;;;;;5010855;28;1201708;-65
2023/04/28 03:46:19;;;;;;;3.47;2.43;;;11.10;98.00;;;;;;5052637;28;20528;-65
2023/04/28 03:48:46;;;;;;;7.53;3.10;;;11.00;98.00;;;;;;5053942;28;20948;-65
2023/04/28 03:51:13;;;;;;;5.27;2.80;;;10.90;98.00;;;;;;5053802;28;20456;-65
2023/04/28 03:53:41;;;;;;;5.10;2.90;;;10.90;98.00;;;;;;5053977;28;20455;-65
2023/04/28 03:56:08;;;;;;;6.17;2.87;;;10.80;98.00;;;;;;5052636;28;20848;-65
2023/04/28 03:58:36;;;;;;;4.50;2.33;;;10.90;98.00;;;;;;5054023;28;20530;-66
2023/04/28 04:01:04;;;;;;;5.67;2.80;;;10.90;98.00;;;;;;5052979;28;20461;-65
2023/04/28 04:03:31;;;;;;;4.13;2.50;;;11.00;98.00;;;;;;5053629;28;20820;-65
2023/04/28 04:05:59;;;;;;;7.23;2.90;;;11.10;98.00;;;;;;5053550;28;20457;-65
2023/04/28 04:08:26;;;;;;;6.00;2.90;;;11.30;98.00;;;;;;5053309;28;20472;-65
2023/04/28 04:10:54;;;;;;;5.20;3.20;;;11.20;98.00;;;;;;5053371;28;20455;-65
2023/04/28 04:13:21;;;;;;;5.00;2.80;;;11.20;98.00;;;;;;5053288;28;20464;-65
2023/04/28 04:15:51;;;;;;;3.83;2.40;;;11.10;98.00;;;;;;5053355;28;20480;-65
2023/04/28 04:18:19;;;;;;;4.87;2.80;;;11.10;98.00;;;;;;5053118;28;20482;-65
2023/04/28 04:20:46;;;;;;;4.03;2.60;;;11.20;98.00;;;;;;5053304;28;20515;-65
2023/04/28 04:23:13;;;;;;;6.30;2.90;;;11.40;98.00;;;;;;5052947;28;20472;-65
2023/04/28 04:25:40;;;;;;;5.20;2.57;;;11.50;98.00;;;;;;5052118;28;20481;-65
2023/04/28 04:28:08;;;;;;;5.30;2.80;;;11.40;98.00;;;;;;5053210;28;20463;-65
2023/04/28 04:30:35;;;;;;;5.00;2.80;;;11.40;98.00;;;;;;5052808;28;20839;-65
2023/04/28 04:33:02;;;;;;;6.63;2.87;;;11.40;98.00;;;;;;5051872;28;20458;-65
2023/04/28 04:35:31;;;;;;;6.30;3.03;;;11.40;98.00;;;;;;5052821;28;20473;-66
2023/04/28 04:38:00;;;;;;;4.37;2.93;;;11.30;98.00;;;;;;5052977;28;20463;-65
2023/04/28 04:40:27;;;;;;;5.77;2.70;;;11.10;98.00;;;;;;5053089;28;20458;-65
2023/04/28 04:42:54;;;;;;;4.53;2.80;;;11.10;98.00;;;;;;5052833;28;20974;-65
2023/04/28 04:45:21;;;;;;;9.13;3.20;;;11.20;98.00;;;;;;5052841;28;20510;-65
2023/04/28 04:47:48;;;;;;;3.67;2.70;;;11.10;98.00;;;;;;5052707;28;20463;-65
2023/04/28 04:50:17;;;;;;;5.03;2.90;;;11.10;98.00;;;;;;5052645;28;20458;-65
2023/04/28 04:52:46;;;;;;;5.47;3.27;;;11.20;98.00;;;;;;5052612;28;20468;-65
2023/04/28 04:55:13;;;;;;;6.10;2.97;;;11.20;98.00;;;;;;5052899;28;20459;-65
2023/04/28 04:57:40;;;;;;;5.33;3.00;;;11.20;98.00;;;;;;5053765;28;20472;-65
2023/04/28 05:00:08;;;;;;;5.10;2.50;;;11.40;98.00;;;;;;5051682;28;20450;-65
2023/04/28 05:02:35;;;;;;;6.87;3.50;;;11.40;98.00;;;;;;5052671;28;20516;-65
2023/04/28 05:05:03;;;;;;;6.20;2.83;;;11.30;98.00;;;;;;5051174;28;20868;-65
2023/04/28 05:07:30;;;;;;;4.17;2.83;;;11.30;98.00;;;;;;5052455;28;20447;-65
2023/04/28 05:09:58;;;;;;;3.93;2.40;;;11.20;98.00;;;;;;5052331;28;20455;-65
2023/04/28 05:12:26;;;;;;;4.73;2.53;;;11.20;98.00;;;;;;5052484;28;20448;-65
2023/04/28 05:14:53;;;;;;;4.97;2.97;;;11.10;98.00;;;;;;5051811;28;20472;-65
2023/04/28 05:17:21;;;;;;;8.77;3.20;;;11.10;98.00;;;;;;5051918;28;21014;-65
2023/04/28 05:19:48;;;;;;;5.40;2.90;;;11.40;98.00;;;;;;5051118;28;20469;-65
2023/04/28 05:22:16;;;;;;;4.50;2.70;;;11.40;98.00;;;;;;5051985;28;20466;-65
2023/04/28 05:24:43;;;;;;;3.80;2.83;;;11.40;98.00;;;;;;5052202;28;20943;-65
2023/04/28 05:27:11;;;;;;;4.27;2.70;;;11.50;98.00;;;;;;5051585;28;20459;-65
2023/04/28 05:29:38;;;;;;;3.97;2.50;;;11.50;98.00;;;;;;5051950;28;20459;-65
2023/04/28 05:32:05;;;;;;;6.40;2.83;;;11.40;98.00;;;;;;5051352;28;20463;-65
2023/04/28 05:34:33;;;;;;;6.27;3.07;;;11.40;98.00;;;;;;5051953;28;20882;-65
2023/04/28 05:37:00;;;;;;;6.13;3.33;;;11.40;98.00;;;;;;5051798;28;20487;-65
2023/04/28 05:39:27;;;;;;;5.43;3.00;;;11.50;98.00;;;;;;5050754;28;20451;-65
2023/04/28 05:41:55;;;;;;;5.50;2.87;;;11.80;98.00;;;;;;5051769;28;20460;-66
2023/04/28 05:44:23;;;;;;;4.83;2.63;;;11.90;98.00;;;;;;5049933;28;20466;-65
2023/04/28 05:46:50;;;;;;;5.83;3.50;;;12.10;98.00;;;;;;5051871;28;20451;-65
2023/04/28 05:49:18;;;;;;;6.13;2.83;;;12.10;98.00;;;;;;5051740;28;20463;-65
2023/04/28 05:51:45;;;;;;;4.80;3.17;;;12.00;98.00;;;;;;5050718;28;20465;-65
2023/04/28 05:54:12;;;;;;;5.57;3.07;;;11.90;98.00;;;;;;5051407;28;20450;-65
2023/04/28 05:56:39;;;;;;;7.70;3.73;;;11.80;98.00;;;;;;5051543;28;21003;-65
2023/04/28 05:59:06;;;;;;;5.83;3.00;;;11.90;98.00;;;;;;5051305;28;20466;-66
2023/04/28 06:01:34;;;;;;;6.40;3.10;;;11.90;98.00;;;;;;5051496;28;20469;-63
2023/04/28 06:04:01;;;;;;;2.93;2.33;;;11.80;98.00;;;;;;5051430;28;20458;-63
2023/04/28 06:06:29;;;;;;;5.30;3.07;;;11.80;98.00;;;;;;5051270;28;20850;-63
2023/04/28 06:08:56;;;;;;;5.53;3.70;;;12.00;98.00;;;;;;5051353;28;20547;-62
2023/04/28 06:11:23;;;;;;;6.63;3.60;;;12.20;98.00;;;;;;5050171;28;20467;-63
2023/04/28 06:13:50;;;;;;;5.70;3.43;;;12.30;98.00;;;;;;5051212;28;20529;-63
2023/04/28 06:16:19;;;;;;;7.13;3.67;;;12.30;98.00;;;;;;5049803;28;20483;-62
2023/04/28 06:18:50;;;;;;;7.63;3.93;;;12.20;98.00;;;;;;5051162;28;20457;-62
2023/04/28 06:21:18;;;;;;;4.93;3.27;;;12.10;98.00;;;;;;5051192;28;20842;-63
2023/04/28 06:23:45;;;;;;;8.23;3.43;;;11.90;98.00;;;;;;5051014;28;20501;-63
2023/04/28 06:26:12;;;;;;;7.70;3.70;;;11.90;98.00;;;;;;5050918;28;20985;-63
2023/04/28 06:28:39;;;;;;;6.33;3.40;;;11.90;98.00;;;;;;5049920;28;20600;-63
2023/04/28 06:31:06;;;;;;;10.20;3.73;;;11.90;98.00;;;;;;5049254;28;20464;-63
2023/04/28 06:33:33;;;;;;;6.20;3.33;;;12.00;98.00;;;;;;5050699;28;20460;-63
2023/04/28 06:36:01;;;;;;;5.90;3.00;;;12.00;98.00;;;;;;5051134;28;20469;-63
2023/04/28 06:38:29;;;;;;;5.27;3.10;;;12.00;98.00;;;;;;5050706;28;20474;-63
2023/04/28 06:40:56;;;;;;;4.67;3.30;;;12.10;98.00;;;;;;5050880;28;20526;-63
2023/04/28 06:43:23;;;;;;;11.60;3.23;;;12.20;98.00;;;;;;5034335;28;20521;-62
2023/04/28 06:45:51;;;;;;;6.03;3.30;;;12.30;98.00;;;;;;5055304;28;20471;-63
2023/04/28 06:48:18;;;;;;;4.87;3.30;;;12.40;98.00;;;;;;5054652;28;20455;-63
2023/04/28 06:50:45;;;;;;;6.00;3.60;;;12.50;98.00;;;;;;5054998;28;20465;-63
2023/04/28 06:53:13;;;;;;;5.90;3.17;;;12.60;98.00;;;;;;5053858;28;20461;-63
2023/04/28 06:55:40;;;;;;;8.70;4.03;;;12.70;98.00;;;;;;5054631;28;20974;-63
2023/04/28 06:58:07;;;;;;;10.97;3.80;;;12.80;98.00;;;;;;5054692;28;20490;-63
2023/04/28 07:00:34;;;;;;;5.57;3.30;;;12.80;98.00;;;;;;5054999;28;20465;-63
2023/04/28 07:03:03;;;;;;;6.23;3.40;;;12.80;98.00;;;;;;5054974;28;20491;-63
2023/04/28 07:05:30;;;;;;;7.97;3.50;;;12.70;98.00;;;;;;5054580;28;20460;-63
2023/04/28 07:07:57;;;;;;;8.60;3.30;;;12.70;98.00;;;;;;5054613;28;20459;-63
2023/04/28 07:10:26;;;;;;;5.57;3.13;;;12.70;98.00;;;;;;5053492;28;21035;-63
2023/04/28 07:12:53;;;;;;;5.27;3.30;;;12.60;98.00;;;;;;5054661;28;21039;-63
2023/04/28 07:15:20;;;;;;;7.83;3.70;;;12.50;98.00;;;;;;5053275;28;20466;-63
2023/04/28 07:17:47;;;;;;;6.03;3.20;;;12.50;98.00;;;;;;5054372;28;20491;-63
2023/04/28 07:20:15;;;;;;;6.10;3.37;;;12.60;98.00;;;;;;5054340;28;20474;-63
2023/04/28 07:22:42;;;;;;;12.60;4.33;;;12.60;98.00;;;;;;5054371;28;20800;-63
2023/04/28 07:25:10;;;;;;;7.83;3.50;;;12.60;98.00;;;;;;5053146;28;20467;-63
2023/04/28 07:27:39;;;;;;;7.30;4.10;;;12.40;98.00;;;;;;5054098;28;20464;-63
2023/04/28 07:30:07;;;;;;;6.57;3.70;;;12.40;98.00;;;;;;5054176;28;20463;-63
2023/04/28 07:32:34;;;;;;;8.20;3.80;;;12.50;98.00;;;;;;5054188;28;20961;-63
2023/04/28 07:35:01;;;;;;;7.00;3.87;;;12.50;98.00;;;;;;5054241;28;20462;-64
2023/04/28 07:37:29;;;;;;;5.80;3.30;;;12.70;98.00;;;;;;5053989;28;21001;-63
2023/04/28 07:39:56;;;;;;;4.87;3.10;;;12.70;98.00;;;;;;5054409;28;20459;-63
2023/04/28 07:42:24;;;;;;;6.47;3.70;;;12.50;98.00;;;;;;5054028;28;21244;-63
2023/04/28 07:44:52;;;;;;;6.80;3.20;;;12.60;98.00;;;;;;5053897;28;20513;-63
2023/04/28 07:47:19;;;;;;;11.80;3.57;;;12.70;98.00;;;;;;5054029;28;20456;-63
2023/04/28 07:49:46;;;;;;;5.30;3.10;;;12.80;98.00;;;;;;5053840;28;20452;-63
2023/04/28 07:52:13;;;;;;;8.60;4.00;;;12.80;98.00;;;;;;5053987;28;20465;-63
2023/04/28 07:54:40;;;;;;;7.10;3.60;;;12.80;98.00;;;;;;5052155;28;20943;-63
2023/04/28 07:57:09;;;;;;;7.90;4.03;;;12.70;98.00;;;;;;5053578;28;20484;-63
2023/04/28 07:59:37;;;;;;;7.40;3.33;;;12.60;98.00;;;;;;5053466;28;20459;-64
2023/04/28 08:02:06;;;;;;;7.63;3.90;;;12.50;98.00;;;;;;5052600;28;20505;-63
2023/04/28 08:04:35;;;;;;;4.90;3.20;;;12.50;98.00;;;;;;5053644;28;20463;-63
2023/04/28 08:07:03;;;;;;;6.03;3.70;;;12.50;98.00;;;;;;5053658;28;20460;-63
2023/04/28 08:09:30;;;;;;;5.93;3.23;;;12.50;98.00;;;;;;5053472;28;20459;-63
2023/04/28 08:11:57;;;;;;;8.63;4.40;;;12.60;98.00;;;;;;5053504;28;20484;-63
2023/04/28 08:14:24;;;;;;;7.70;3.67;;;12.70;98.00;;;;;;5052135;28;20464;-64
2023/04/28 08:16:52;;;;;;;7.00;3.63;;;12.90;98.00;;;;;;5053172;28;20998;-64
2023/04/28 08:19:20;;;;;;;6.07;3.50;;;13.00;98.00;;;;;;5051869;28;20833;-63
2023/04/28 08:21:50;;;;;;;6.90;3.50;;;13.00;98.00;;;;;;5053318;28;20459;-63
2023/04/28 08:24:17;;;;;;;6.97;3.70;;;13.00;98.00;;;;;;5053217;28;20458;-64
2023/04/28 08:26:44;;;;;;;7.80;3.10;;;13.10;98.00;;;;;;5053128;28;20475;-63
2023/04/28 08:29:11;;;;;;;5.70;3.37;;;13.10;98.00;;;;;;5053521;28;20454;-64
2023/04/28 08:31:38;;;;;;;7.50;3.70;;;13.10;98.00;;;;;;5053939;28;20526;-63
2023/04/28 08:34:06;;;;;;;6.20;3.30;;;13.00;98.00;;;;;;5053950;28;20581;-64
2023/04/28 08:36:34;;;;;;;6.00;3.20;;;13.10;98.00;;;;;;5052351;28;20466;-63
2023/04/28 08:39:06;;;;;;;4.93;3.10;;;13.20;98.00;;;;;;5047604;28;20464;-64
2023/04/28 08:41:36;;;;;;;7.30;3.90;;;13.20;98.00;;;;;;5051805;28;20466;-63
2023/04/28 08:44:08;;;;;;;8.10;4.07;;;13.20;98.00;;;;;;5053188;28;20471;-63
2023/04/28 08:46:36;;;;;;;6.43;3.50;;;13.10;98.00;;;;;;5053319;28;20469;-64
2023/04/28 08:49:07;;;;;;;6.00;3.50;;;13.10;98.00;;;;;;5053096;28;20456;-63
2023/04/28 08:51:44;;;;;;;4.83;3.10;;;13.10;98.00;;;;;;5053089;28;20462;-64
2023/04/28 08:54:14;;;;;;;11.70;3.67;;;13.20;98.00;;;;;;5053154;28;20451;-64
2023/04/28 08:56:44;;;;;;;4.97;3.40;;;13.10;98.00;;;;;;5053274;28;20474;-63
2023/04/28 08:59:12;;;;;;;8.00;3.80;;;13.10;98.00;;;;;;5053099;28;20468;-65
2023/04/28 09:01:39;;;;;;;6.53;3.30;;;13.10;98.00;;;;;;5053196;28;20556;-62
2023/04/28 09:04:06;;;;;;;4.20;2.67;;;13.10;98.00;;;;;;5053299;28;20523;-66
2023/04/28 09:06:37;;;;;;;3.50;2.67;;;13.10;98.00;;;;;;5051947;28;20456;-62
2023/04/28 09:09:22;;;;;;;4.50;2.27;;;13.10;98.00;;;;;;5052947;28;20551;-64
2023/04/28 09:11:54;;;;;;;4.37;2.20;;;13.20;98.00;;;;;;5051809;28;20472;-63
2023/04/28 09:14:21;;;;;;;3.33;2.20;;;13.30;98.00;;;;;;5051552;28;20461;-64
2023/04/28 09:16:49;;;;;;;4.30;2.30;;;13.40;98.00;;;;;;5052697;28;20457;-64
2023/04/28 09:19:16;;;;;;;3.93;2.27;;;13.60;98.00;;;;;;5052736;28;20467;-64
2023/04/28 09:21:51;;;;;;;4.10;2.50;;;13.80;98.00;;;;;;5051903;28;20602;-64
2023/04/28 09:24:30;;;;;;;3.43;2.30;;;14.00;98.00;;;;;;5051341;28;20470;-64
2023/04/28 09:26:57;;;;;;;3.37;1.80;;;14.00;98.00;;;;;;5052818;28;20456;-64
2023/04/28 09:29:24;;;;;;;2.47;1.87;;;14.00;98.00;;;;;;5052708;28;20476;-64
2023/04/28 09:31:52;;;;;;;3.10;2.17;;;14.10;98.00;;;;;;5052695;28;20461;-64
2023/04/28 09:34:19;;;;;;;3.80;2.60;;;14.10;98.00;;;;;;5052203;28;20468;-64
2023/04/28 09:36:47;;;;;;;4.23;2.30;;;14.10;98.00;;;;;;5052422;28;20472;-64
2023/04/28 09:39:30;;;;;;;2.87;2.30;;;14.20;98.00;;;;;;5052004;28;20456;-64
2023/04/28 09:42:02;;;;;;;2.23;1.90;;;14.10;98.00;;;;;;5051800;28;20469;-64
2023/04/28 09:44:29;;;;;;;3.07;2.10;;;14.20;98.00;;;;;;5052118;28;20465;-65
2023/04/28 09:46:57;;;;;;;3.00;2.27;;;14.30;98.00;;;;;;5052344;28;20890;-64
2023/04/28 09:49:24;;;;;;;4.87;2.37;;;14.30;98.00;;;;;;5052250;28;20493;-64
2023/04/28 09:51:53;;;;;;;3.70;2.47;;;14.30;98.00;;;;;;5050819;28;20460;-64
2023/04/28 09:54:22;;;;;;;3.33;2.10;;;14.40;98.00;;;;;;5051837;28;20461;-64
2023/04/28 09:56:51;;;;;;;2.93;2.23;;;14.40;98.00;;;;;;5052167;28;20991;-64
2023/04/28 09:59:18;;;;;;;3.20;2.07;;;14.50;98.00;;;;;;5051844;28;20515;-64
2023/04/28 10:01:46;;;;;;;4.10;2.60;;;14.70;98.00;;;;;;5052023;28;20458;-64
2023/04/28 10:04:13;;;;;;;2.80;2.20;;;14.80;98.00;;;;;;5051766;28;20468;-64
2023/04/28 10:06:41;;;;;;;4.20;2.60;;;14.80;98.00;;;;;;5051558;28;20959;-64
2023/04/28 10:09:11;;;;;;;3.60;2.30;;;14.80;98.00;;;;;;5051614;28;20465;-64
2023/04/28 10:11:39;;;;;;;3.90;2.73;;;14.90;98.00;;;;;;5051574;28;20464;-65
2023/04/28 10:14:06;;;;;;;3.73;2.43;;;14.90;98.00;;;;;;5051599;28;20454;-64
2023/04/28 10:16:34;;;;;;;4.07;2.27;;;14.90;98.00;;;;;;5049223;28;20453;-64
2023/04/28 10:19:04;;;;;;;3.03;2.37;;;15.00;98.00;;;;;;5051511;28;20477;-64
2023/04/28 10:21:43;;;;;;;3.00;2.20;;;15.20;98.00;;;;;;5051557;28;20467;-64
2023/04/28 10:24:17;;;;;;;3.50;2.27;;;15.20;98.00;;;;;;5051640;28;20464;-64
2023/04/28 10:27:10;;;;;;;3.97;2.40;;;15.40;98.00;;;;;;5051660;28;20461;-64
2023/04/28 10:29:38;;;;;;;4.03;2.40;;;15.60;98.00;;;;;;5050765;28;20970;-64
2023/04/28 10:32:33;;;;;;;5.27;2.87;;;15.60;98.00;;;;;;5051137;28;20487;-64
2023/04/28 10:35:48;;;;;;;3.77;2.17;;;15.80;98.00;;;;;;5051548;28;20457;-64
2023/04/28 10:38:16;;;;;;;5.47;3.13;;;15.90;98.00;;;;;;5009407;28;20499;-64
2023/04/28 10:40:45;;;;;;;5.90;3.00;;;16.00;98.00;;;;;;5008901;28;20448;-64
2023/04/28 10:43:14;;;;;;;4.17;2.53;;;16.10;98.00;;;;;;5028469;28;20457;-64
2023/04/28 10:45:59;;;;;;;5.30;2.93;;;16.00;98.00;;;;;;5051187;28;20466;-64
2023/04/28 10:49:06;;;;;;;4.20;2.80;;;16.00;98.00;;;;;;5041786;28;20464;-64
2023/04/28 10:51:36;;;;;;;4.13;3.00;;;15.90;98.00;;;;;;5051697;28;20489;-64
2023/04/28 10:54:29;;;;;;;8.37;3.00;;;16.00;98.00;;;;;;5051517;28;20450;-64
2023/04/28 10:57:21;;;;;;;6.03;3.43;;;16.30;98.00;;;;;;5051421;28;20457;-64
2023/04/28 10:59:49;;;;;;;5.57;3.33;;;16.50;98.00;;;;;;5051249;28;20499;-64
2023/04/28 11:02:36;;;;;;;4.00;2.93;;;16.70;98.00;;;;;;5050076;28;20457;-64
2023/04/28 11:05:20;;;;;;;5.30;3.07;;;16.80;98.00;;;;;;5051510;28;20550;-64
2023/04/28 11:08:35;;;;;;;6.67;2.90;;;17.00;98.00;;;;;;5050928;28;20480;-64
2023/04/28 11:11:29;;;;;;;5.40;3.33;;;17.00;98.00;;;;;;5050650;28;20825;-64
2023/04/28 11:14:31;;;;;;;4.50;2.70;;;17.20;98.00;;;;;;5050550;28;20470;-64
2023/04/28 11:17:01;;;;;;;5.37;2.80;;;17.40;98.00;;;;;;5050740;28;20457;-64
2023/04/28 11:19:30;;;;;;;5.27;3.10;;;17.50;98.00;;;;;;5051290;28;20494;-64
2023/04/28 11:21:59;;;;;;;5.70;3.23;;;17.70;98.00;;;;;;5051435;28;20462;-64
2023/04/28 11:24:28;;;;;;;3.77;2.40;;;17.70;98.00;;;;;;5050105;28;20465;-64
2023/04/28 11:26:56;;;;;;;3.23;2.10;;;17.70;98.00;;;;;;5050950;28;20462;-64
2023/04/28 11:29:33;;;;;;;3.30;2.37;;;17.90;98.00;;;;;;5051892;28;20902;-64
2023/04/28 11:32:01;;;;;;;3.30;2.23;;;18.00;98.00;;;;;;5054505;28;20497;-64
2023/04/28 11:34:28;;;;;;;3.27;2.50;;;18.00;98.00;;;;;;5054758;28;20445;-64
2023/04/28 11:36:55;;;;;;;2.53;1.73;;;17.80;98.00;;;;;;5054291;28;20461;-64
2023/04/28 11:39:33;;;;;;;3.10;2.00;;;17.90;98.00;;;;;;5054145;28;20517;-64
2023/04/28 11:42:02;;;;;;;2.70;1.90;;;18.00;98.00;;;;;;5054563;28;20484;-64
2023/04/28 11:44:30;;;;;;;4.03;2.40;;;18.20;98.00;;;;;;5054232;28;20842;-64
2023/04/28 11:47:00;;;;;;;3.00;1.83;;;18.60;98.00;;;;;;5054507;28;20466;-64
2023/04/28 11:49:31;;;;;;;4.57;2.10;;;18.70;98.00;;;;;;5054320;28;20454;-64
2023/04/28 11:52:04;;;;;;;2.80;1.97;;;18.90;98.00;;;;;;5054597;28;20462;-64
2023/04/28 11:54:32;;;;;;;3.47;2.17;;;19.00;98.00;;;;;;5054518;28;20464;-64
2023/04/28 11:57:02;;;;;;;4.20;2.30;;;19.10;98.00;;;;;;5054480;28;20523;-64
2023/04/28 11:59:32;;;;;;;3.00;1.80;;;19.10;98.00;;;;;;5054151;28;20481;-64
2023/04/28 12:02:03;;;;;;;2.53;1.80;;;19.00;98.00;;;;;;5054625;28;20454;-65
2023/04/28 12:04:34;;;;;;;2.60;2.00;;;19.00;98.00;;;;;;5054336;28;20816;-64
2023/04/28 12:07:03;;;;;;;1.97;1.53;;;19.00;98.00;;;;;;5053735;28;20496;-64
2023/04/28 12:09:31;;;;;;;3.33;2.00;;;18.90;98.00;;;;;;5054037;28;20466;-62
2023/04/28 12:12:02;;;;;;;2.80;1.40;;;18.60;98.00;;;;;;5054076;28;20465;-63
2023/04/28 12:14:34;;;;;;;2.10;1.80;;;18.50;98.00;;;;;;5053900;28;20888;-63
2023/04/28 12:17:05;;;;;;;6.17;2.07;;;18.60;98.00;;;;;;5054374;28;20453;-63
2023/04/28 12:19:44;;;;;;;2.77;1.90;;;18.80;98.00;;;;;;5054011;28;20485;-63
2023/04/28 12:22:11;;;;;;;3.13;1.67;;;18.70;98.00;;;;;;5053974;28;20866;-63
2023/04/28 12:24:39;;;;;;;3.07;2.33;;;18.60;98.00;;;;;;5053683;28;20465;-63
2023/04/28 12:27:20;;;;;;;3.27;2.07;;;18.30;98.00;;;;;;5053663;28;20931;-63
2023/04/28 12:29:47;;;;;;;2.60;1.80;;;18.20;98.00;;;;;;5053487;28;20536;-63
2023/04/28 12:32:16;;;;;;;3.00;2.03;;;18.20;98.00;;;;;;5052358;28;20450;-63
2023/04/28 12:34:45;;;;;;;2.93;2.10;;;18.30;98.00;;;;;;5053203;28;20453;-63
2023/04/28 12:37:13;;;;;;;3.00;1.97;;;18.20;98.00;;;;;;5053462;28;20960;-63
2023/04/28 12:39:41;;;;;;;2.17;1.93;;;18.10;98.00;;;;;;5053429;28;20508;-63
2023/04/28 12:42:08;;;;;;;3.03;2.07;;;18.10;98.00;;;;;;5052286;28;20477;-63
2023/04/28 12:44:37;;;;;;;2.57;1.80;;;18.00;98.00;;;;;;5053368;28;20461;-63
2023/04/28 12:47:06;;;;;;;2.37;1.97;;;17.80;98.00;;;;;;5053412;28;20469;-63
2023/04/28 12:49:35;;;;;;;2.40;1.80;;;17.70;98.00;;;;;;5053435;28;20453;-63
2023/04/28 12:52:03;;;;;;;2.20;1.53;;;17.50;98.00;;;;;;5053474;28;20512;-63
2023/04/28 12:54:30;;;;;;;4.00;1.90;;;17.50;98.00;;;;;;5053222;28;20450;-63
2023/04/28 12:56:57;;;;;;;1.83;1.53;;;17.60;98.00;;;;;;5053368;28;20549;-64